createdAt,value
2022-09-29T00:01:11.609Z,5.30
2022-09-29T00:03:57.421Z,4.50
2022-09-29T00:06:43.336Z,4.55
2022-09-29T00:09:28.693Z,3.53
2022-09-29T00:12:14.655Z,3.30
2022-09-29T00:15:00.249Z,3.58
2022-09-29T00:18:09.265Z,4.68
2022-09-29T00:21:19.719Z,3.40
2022-09-29T00:24:05.284Z,5.60
2022-09-29T00:26:50.575Z,4.50
2022-09-29T00:29:35.978Z,4.18
2022-09-29T00:32:21.284Z,8.77
2022-09-29T00:35:08.454Z,4.22
2022-09-29T00:37:54.092Z,5.57
2022-09-29T00:40:39.536Z,3.83
2022-09-29T00:43:57.734Z,5.87
2022-09-29T00:47:02.969Z,6.25
2022-09-29T00:50:11.666Z,5.78
2022-09-29T00:53:01.806Z,5.57
2022-09-29T00:55:56.761Z,7.13
2022-09-29T00:58:55.014Z,4.47
2022-09-29T01:01:40.517Z,6.18
2022-09-29T01:04:26.274Z,4.75
2022-09-29T01:07:12.263Z,5.60
2022-09-29T01:09:58.277Z,6.35
2022-09-29T01:12:48.326Z,4.63
2022-09-29T01:15:34.379Z,10.07
2022-09-29T01:18:19.808Z,5.22
2022-09-29T01:21:36.368Z,6.10
2022-09-29T01:24:52.309Z,5.68
2022-09-29T01:27:53.854Z,10.13
2022-09-29T01:31:07.377Z,4.40
2022-09-29T01:33:58.537Z,4.40
2022-09-29T01:36:57.894Z,5.63
2022-09-29T01:39:57.564Z,7.75
2022-09-29T01:42:57.719Z,6.18
2022-09-29T01:45:52.177Z,20.17
2022-09-29T01:48:43.089Z,6.47
2022-09-29T01:51:36.573Z,17.00
2022-09-29T01:54:47.670Z,25.27
2022-09-29T01:57:45.287Z,4.07
2022-09-29T02:00:37.821Z,4.35
2022-09-29T02:03:30.581Z,6.93
2022-09-29T02:06:22.164Z,5.50
2022-09-29T02:09:16.918Z,4.63
2022-09-29T02:12:04.864Z,5.27
2022-09-29T02:14:53.551Z,4.38
2022-09-29T02:17:43.561Z,4.82
2022-09-29T02:20:28.872Z,4.88
2022-09-29T02:23:14.334Z,5.20
2022-09-29T02:26:00.642Z,5.40
2022-09-29T02:28:46.010Z,6.95
2022-09-29T02:31:33.118Z,7.93
2022-09-29T02:34:21.819Z,5.88
2022-09-29T02:37:16.799Z,4.78
2022-09-29T02:40:25.334Z,4.20
2022-09-29T02:43:26.065Z,5.88
2022-09-29T02:46:34.217Z,5.35
2022-09-29T02:49:33.270Z,4.50
2022-09-29T02:52:52.014Z,5.88
2022-09-29T02:55:57.153Z,3.40
2022-09-29T02:58:51.832Z,5.03
2022-09-29T03:01:49.184Z,6.60
2022-09-29T03:04:34.522Z,4.55
2022-09-29T03:07:20.993Z,5.50
2022-09-29T03:10:08.188Z,6.03
2022-09-29T03:12:53.848Z,9.18
2022-09-29T03:15:39.362Z,5.47
2022-09-29T03:18:25.440Z,5.72
2022-09-29T03:21:11.139Z,5.78
2022-09-29T03:23:57.823Z,5.40
2022-09-29T03:26:43.473Z,9.00
2022-09-29T03:29:28.928Z,4.93
2022-09-29T03:32:14.723Z,5.03
2022-09-29T03:35:00.143Z,8.02
2022-09-29T03:37:45.994Z,8.10
2022-09-29T03:40:31.394Z,4.53
2022-09-29T03:43:16.845Z,4.38
2022-09-29T03:46:02.408Z,7.20
2022-09-29T03:48:48.130Z,6.90
2022-09-29T03:51:33.435Z,7.80
2022-09-29T03:54:19.376Z,5.05
2022-09-29T03:57:05.342Z,4.38
2022-09-29T03:59:50.982Z,9.23
2022-09-29T04:02:36.538Z,5.77
2022-09-29T04:05:22.345Z,6.68
2022-09-29T04:08:08.310Z,5.53
2022-09-29T04:10:53.600Z,7.30
2022-09-29T04:13:39.139Z,6.05
2022-09-29T04:16:24.817Z,6.22
2022-09-29T04:19:10.073Z,5.50
2022-09-29T04:21:55.603Z,6.57
2022-09-29T04:24:41.015Z,6.65
2022-09-29T04:27:26.393Z,9.80
2022-09-29T04:30:12.233Z,8.10
2022-09-29T04:32:57.670Z,5.95
2022-09-29T04:35:43.472Z,5.60
2022-09-29T04:38:28.785Z,7.07
2022-09-29T04:41:14.230Z,10.23
2022-09-29T04:43:59.856Z,7.97
2022-09-29T04:46:45.435Z,10.65
2022-09-29T04:49:31.063Z,7.70
2022-09-29T04:52:16.612Z,7.85
2022-09-29T04:55:04.076Z,4.55
2022-09-29T04:57:49.775Z,9.63
2022-09-29T05:00:35.365Z,8.35
2022-09-29T05:03:21.037Z,11.45
2022-09-29T05:06:09.164Z,8.70
2022-09-29T05:08:54.858Z,8.23
2022-09-29T05:11:40.633Z,15.05
2022-09-29T05:14:26.043Z,7.15
2022-09-29T05:17:11.393Z,7.97
2022-09-29T05:19:57.231Z,7.95
2022-09-29T05:22:43.069Z,7.40
2022-09-29T05:25:28.720Z,9.60
2022-09-29T05:28:15.122Z,8.50
2022-09-29T05:31:07.643Z,7.40
2022-09-29T05:33:55.919Z,8.50
2022-09-29T05:36:41.327Z,7.17
2022-09-29T05:39:27.098Z,7.13
2022-09-29T05:42:12.460Z,12.85
2022-09-29T05:44:57.961Z,7.77
2022-09-29T05:47:44.634Z,8.27
2022-09-29T05:50:32.112Z,6.63
2022-09-29T05:53:17.680Z,10.95
2022-09-29T05:56:12.033Z,8.90
2022-09-29T05:58:57.431Z,8.03
2022-09-29T06:01:43.618Z,10.05
2022-09-29T06:04:29.250Z,6.30
2022-09-29T06:07:14.731Z,9.65
2022-09-29T06:10:00.356Z,7.60
2022-09-29T06:12:45.926Z,7.22
2022-09-29T06:15:31.376Z,7.85
2022-09-29T06:18:16.767Z,6.57
2022-09-29T06:21:23.765Z,8.23
2022-09-29T06:24:09.496Z,9.60
2022-09-29T06:26:55.112Z,9.45
2022-09-29T06:29:40.358Z,8.73
2022-09-29T06:32:25.948Z,10.18
2022-09-29T06:35:29.609Z,7.68
2022-09-29T06:38:15.329Z,10.02
2022-09-29T06:41:01.380Z,7.28
2022-09-29T06:43:47.144Z,9.00
2022-09-29T06:46:32.537Z,8.50
2022-09-29T06:49:19.165Z,7.40
2022-09-29T06:52:15.128Z,6.72
2022-09-29T06:55:05.286Z,8.25
2022-09-29T06:57:50.920Z,7.95
2022-09-29T07:00:37.911Z,6.07
2022-09-29T07:03:23.485Z,8.85
2022-09-29T07:06:25.950Z,6.15
2022-09-29T07:09:15.978Z,8.30
2022-09-29T07:12:01.683Z,8.47
2022-09-29T07:14:47.320Z,6.97
2022-09-29T07:17:32.769Z,7.00
2022-09-29T07:20:18.345Z,8.10
2022-09-29T07:23:06.326Z,11.83
2022-09-29T07:25:52.619Z,11.90
2022-09-29T07:28:38.485Z,8.87
2022-09-29T07:31:24.040Z,7.25
2022-09-29T07:34:09.459Z,7.70
2022-09-29T07:36:54.923Z,8.45
2022-09-29T07:39:40.531Z,8.20
2022-09-29T07:42:29.193Z,9.90
2022-09-29T07:45:15.410Z,10.73
2022-09-29T07:48:01.197Z,9.93
2022-09-29T07:50:46.868Z,11.73
2022-09-29T07:53:32.468Z,12.33
2022-09-29T07:56:20.933Z,10.00
2022-09-29T07:59:06.629Z,9.45
2022-09-29T08:01:51.996Z,10.20
2022-09-29T08:04:38.211Z,11.57
2022-09-29T08:07:24.193Z,11.02
2022-09-29T08:10:17.065Z,11.75
2022-09-29T08:13:03.582Z,10.27
2022-09-29T08:15:48.954Z,11.35
2022-09-29T08:18:35.364Z,11.38
2022-09-29T08:21:20.969Z,9.65
2022-09-29T08:24:07.253Z,12.45
2022-09-29T08:26:52.807Z,10.63
2022-09-29T08:29:46.123Z,11.70
2022-09-29T08:32:32.292Z,12.38
2022-09-29T08:35:17.878Z,12.57
2022-09-29T08:38:03.121Z,11.27
2022-09-29T08:40:48.583Z,10.57
2022-09-29T08:43:39.882Z,11.77
2022-09-29T08:46:36.038Z,10.57
2022-09-29T08:49:51.795Z,13.45
2022-09-29T08:52:52.650Z,10.37
2022-09-29T08:55:54.781Z,9.97
2022-09-29T08:58:40.483Z,12.68
2022-09-29T09:01:44.923Z,12.57
2022-09-29T09:04:52.585Z,13.82
2022-09-29T09:07:51.155Z,13.27
2022-09-29T09:10:47.442Z,18.55
2022-09-29T09:13:56.964Z,10.85
2022-09-29T09:17:10.341Z,9.77
2022-09-29T09:20:21.061Z,11.23
2022-09-29T09:23:32.922Z,9.70
2022-09-29T09:26:19.784Z,10.85
2022-09-29T09:29:36.556Z,11.32
2022-09-29T09:32:28.757Z,8.80
2022-09-29T09:35:41.568Z,9.98
2022-09-29T09:38:44.953Z,9.60
2022-09-29T09:41:36.140Z,10.10
2022-09-29T09:44:25.489Z,12.18
2022-09-29T09:47:13.763Z,10.23
2022-09-29T09:50:18.125Z,8.77
2022-09-29T09:53:14.597Z,9.15
2022-09-29T09:56:22.451Z,9.85
2022-09-29T09:59:39.193Z,9.52
2022-09-29T10:02:24.665Z,11.77
2022-09-29T10:05:16.358Z,9.88
2022-09-29T10:08:02.436Z,9.00
2022-09-29T10:10:58.078Z,9.00
2022-09-29T10:13:44.614Z,10.10
2022-09-29T10:16:41.598Z,11.48
2022-09-29T10:19:59.730Z,8.50
2022-09-29T10:22:48.473Z,8.82
2022-09-29T10:25:37.248Z,10.02
2022-09-29T10:28:23.984Z,10.05
2022-09-29T10:31:30.719Z,8.65
2022-09-29T10:34:17.704Z,7.97
2022-09-29T10:37:23.672Z,7.72
2022-09-29T10:40:09.479Z,7.60
2022-09-29T10:42:56.920Z,9.80
2022-09-29T10:45:49.118Z,6.70
2022-09-29T10:48:34.915Z,6.57
2022-09-29T10:51:25.421Z,6.90
2022-09-29T10:54:16.220Z,6.70
2022-09-29T10:57:15.623Z,6.68
2022-09-29T11:00:02.049Z,6.93
2022-09-29T11:02:47.607Z,6.57
2022-09-29T11:05:34.542Z,6.30
2022-09-29T11:08:25.843Z,6.73
2022-09-29T11:11:35.166Z,9.52
2022-09-29T11:14:38.601Z,6.78
2022-09-29T11:17:39.656Z,7.70
2022-09-29T11:20:32.256Z,8.77
2022-09-29T11:23:35.196Z,7.85
2022-09-29T11:26:29.206Z,6.57
2022-09-29T11:29:41.012Z,5.97
2022-09-29T11:32:26.571Z,6.07
2022-09-29T11:35:34.288Z,5.68
2022-09-29T11:38:38.785Z,7.30
2022-09-29T11:41:37.341Z,5.82
2022-09-29T11:44:23.063Z,5.82
2022-09-29T11:47:11.008Z,7.15
2022-09-29T11:50:36.057Z,6.80
2022-09-29T11:54:05.294Z,6.05
2022-09-29T11:57:01.676Z,7.78
2022-09-29T12:00:09.886Z,5.40
2022-09-29T12:03:21.791Z,5.05
2022-09-29T12:06:52.626Z,5.80
2022-09-29T12:09:53.471Z,4.63
2022-09-29T12:12:44.132Z,4.25
2022-09-29T12:15:48.119Z,3.80
2022-09-29T12:19:15.208Z,4.28
2022-09-29T12:22:07.677Z,5.60
2022-09-29T12:24:59.464Z,4.00
2022-09-29T12:27:47.401Z,5.38
2022-09-29T12:30:41.529Z,4.35
2022-09-29T12:33:39.769Z,3.00
2022-09-29T12:37:02.375Z,3.17
2022-09-29T12:40:17.124Z,4.20
2022-09-29T12:43:24.071Z,3.80
2022-09-29T12:46:24.962Z,3.28
2022-09-29T12:49:47.966Z,2.95
2022-09-29T12:52:46.200Z,2.22
2022-09-29T12:55:54.430Z,3.50
2022-09-29T12:58:48.058Z,2.20
2022-09-29T13:01:37.655Z,3.33
2022-09-29T13:05:02.177Z,2.42
2022-09-29T13:08:05.861Z,2.92
2022-09-29T13:11:17.214Z,2.17
2022-09-29T13:14:33.542Z,1.95
2022-09-29T13:17:43.533Z,2.85
2022-09-29T13:21:19.267Z,2.03
2022-09-29T13:24:26.447Z,3.28
2022-09-29T13:27:20.547Z,1.98
2022-09-29T13:30:13.059Z,1.50
2022-09-29T13:33:09.370Z,0.68
2022-09-29T13:35:55.238Z,0.40
2022-09-29T13:38:47.101Z,0.93
2022-09-29T13:41:39.477Z,0.43
2022-09-29T13:44:27.639Z,0.50
2022-09-29T13:47:34.003Z,1.97
2022-09-29T13:50:43.215Z,0.57
2022-09-29T13:53:35.500Z,0.60
2022-09-29T13:56:21.084Z,1.05
2022-09-29T13:59:15.435Z,0.80
2022-09-29T14:02:01.692Z,0.70
2022-09-29T14:04:49.853Z,2.45
2022-09-29T14:11:04.585Z,0.77
2022-09-29T14:13:57.626Z,0.77
2022-09-29T14:16:57.868Z,1.58
2022-09-29T14:19:52.376Z,1.50
2022-09-29T14:22:38.059Z,0.70
2022-09-29T14:25:41.380Z,2.70
2022-09-29T14:28:37.086Z,0.90
2022-09-29T14:31:24.840Z,2.05
2022-09-29T14:34:14.398Z,1.42
2022-09-29T14:37:01.113Z,1.33
2022-09-29T14:40:07.159Z,1.20
2022-09-29T14:43:13.307Z,1.13
2022-09-29T14:46:20.499Z,1.67
2022-09-29T14:49:52.652Z,1.70
2022-09-29T14:52:49.151Z,0.60
2022-09-29T14:56:09.689Z,1.50
2022-09-29T14:59:10.872Z,1.33
2022-09-29T15:02:25.201Z,0.80
2022-09-29T15:05:13.412Z,1.08
2022-09-29T15:08:00.705Z,1.50
2022-09-29T15:10:46.872Z,1.60
2022-09-29T15:13:32.531Z,2.10
2022-09-29T15:16:45.038Z,1.05
2022-09-29T15:19:55.580Z,0.90
2022-09-29T15:23:20.683Z,1.50
2022-09-29T15:26:12.892Z,1.90
2022-09-29T15:28:59.606Z,0.60
2022-09-29T15:31:48.786Z,1.17
2022-09-29T15:34:39.473Z,1.05
2022-09-29T15:37:25.383Z,1.13
2022-09-29T15:40:15.850Z,2.05
2022-09-29T15:43:04.007Z,1.23
2022-09-29T15:46:02.375Z,1.30
2022-09-29T15:49:08.306Z,2.20
2022-09-29T15:52:02.794Z,1.10
2022-09-29T15:54:48.985Z,0.60
2022-09-29T15:57:43.095Z,2.50
2022-09-29T16:00:37.161Z,5.97
2022-09-29T16:03:39.629Z,1.60
2022-09-29T16:06:30.073Z,0.63
2022-09-29T16:09:19.981Z,0.70
2022-09-29T16:12:07.360Z,0.93
2022-09-29T16:14:57.979Z,1.27
2022-09-29T16:17:43.658Z,3.20
2022-09-29T16:20:31.207Z,0.75
2022-09-29T16:23:27.856Z,2.10
2022-09-29T16:26:43.647Z,1.33
2022-09-29T16:29:29.265Z,2.85
2022-09-29T16:32:32.953Z,0.68
2022-09-29T16:35:41.691Z,1.60
2022-09-29T16:38:40.112Z,1.98
2022-09-29T16:41:35.431Z,1.48
2022-09-29T16:44:30.440Z,2.10
2022-09-29T16:47:20.624Z,1.90
2022-09-29T16:50:14.374Z,1.30
2022-09-29T16:53:00.553Z,1.38
2022-09-29T16:55:59.217Z,2.70
2022-09-29T16:59:01.242Z,1.67
2022-09-29T17:01:47.199Z,1.35
2022-09-29T17:04:33.633Z,2.22
2022-09-29T17:07:22.404Z,1.33
2022-09-29T17:10:16.401Z,2.70
2022-09-29T17:13:02.446Z,0.50
2022-09-29T17:15:51.274Z,0.43
2022-09-29T17:18:37.226Z,1.63
2022-09-29T17:21:22.939Z,2.17
2022-09-29T17:24:08.597Z,2.83
2022-09-29T17:27:12.715Z,0.70
2022-09-29T17:29:58.460Z,1.08
2022-09-29T17:32:46.792Z,1.97
2022-09-29T17:35:36.583Z,0.57
2022-09-29T17:38:22.025Z,1.30
2022-09-29T17:41:08.775Z,3.45
2022-09-29T17:43:54.401Z,2.00
2022-09-29T17:46:40.159Z,0.80
2022-09-29T17:49:25.636Z,5.80
2022-09-29T17:52:15.112Z,0.38
2022-09-29T17:55:01.226Z,1.30
2022-09-29T17:57:49.479Z,1.52
2022-09-29T18:00:38.344Z,0.57
2022-09-29T18:03:24.242Z,0.50
2022-09-29T18:06:21.102Z,1.35
2022-09-29T18:09:15.745Z,0.47
2022-09-29T18:12:01.558Z,0.52
2022-09-29T18:14:47.391Z,1.00
2022-09-29T18:17:33.255Z,0.88
2022-09-29T18:20:21.799Z,1.60
2022-09-29T18:23:07.843Z,1.30
2022-09-29T18:25:53.855Z,1.15
2022-09-29T18:28:39.056Z,1.07
2022-09-29T18:31:28.318Z,1.08
2022-09-29T18:34:16.544Z,1.33
2022-09-29T18:37:02.151Z,2.03
2022-09-29T18:39:47.876Z,1.90
2022-09-29T18:42:33.477Z,1.73
2022-09-29T18:45:24.481Z,1.48
2022-09-29T18:48:12.318Z,4.32
2022-09-29T18:50:57.729Z,5.38
2022-09-29T18:53:44.233Z,3.28
2022-09-29T18:56:30.957Z,2.45
2022-09-29T18:59:16.629Z,1.42
2022-09-29T19:02:02.131Z,3.55
2022-09-29T19:04:53.063Z,1.73
2022-09-29T19:07:39.269Z,1.00
2022-09-29T19:10:25.508Z,1.52
2022-09-29T19:13:16.472Z,1.55
2022-09-29T19:16:03.720Z,1.70
2022-09-29T19:18:52.911Z,2.00
2022-09-29T19:21:38.320Z,1.25
2022-09-29T19:24:24.218Z,1.02
2022-09-29T19:27:09.693Z,2.30
2022-09-29T19:29:58.418Z,1.25
2022-09-29T19:32:47.555Z,2.72
2022-09-29T19:35:33.198Z,2.63
2022-09-29T19:38:19.556Z,1.20
2022-09-29T19:41:11.302Z,1.70
2022-09-29T19:43:59.744Z,2.88
2022-09-29T19:46:45.159Z,1.95
2022-09-29T19:49:30.914Z,1.38
2022-09-29T19:52:16.341Z,1.67
2022-09-29T19:55:06.103Z,1.85
2022-09-29T19:57:51.946Z,5.10
2022-09-29T20:00:40.839Z,1.57
2022-09-29T20:03:26.441Z,2.58
2022-09-29T20:06:11.754Z,2.13
2022-09-29T20:08:57.211Z,3.50
2022-09-29T20:11:43.965Z,1.60
2022-09-29T20:14:32.080Z,1.92
2022-09-29T20:17:17.582Z,1.23
2022-09-29T20:20:04.033Z,1.48
2022-09-29T20:22:50.505Z,2.55
2022-09-29T20:25:35.780Z,1.90
2022-09-29T20:28:21.194Z,2.00
2022-09-29T20:31:09.938Z,1.33
2022-09-29T20:33:55.414Z,3.27
2022-09-29T20:36:40.889Z,2.35
2022-09-29T20:39:26.376Z,5.38
2022-09-29T20:42:11.834Z,3.85
2022-09-29T20:44:57.160Z,2.58
2022-09-29T20:47:42.661Z,3.83
2022-09-29T20:50:30.171Z,2.13
2022-09-29T20:53:15.491Z,3.15
2022-09-29T20:56:06.555Z,2.05
2022-09-29T20:58:51.967Z,2.03
2022-09-29T21:01:37.678Z,2.20
2022-09-29T21:04:23.183Z,1.83
2022-09-29T21:07:28.817Z,2.60
2022-09-29T21:10:14.594Z,2.58
2022-09-29T21:13:03.096Z,2.40
2022-09-29T21:15:48.705Z,2.35
2022-09-29T21:18:34.709Z,1.58
2022-09-29T21:21:20.469Z,1.45
2022-09-29T21:24:06.516Z,2.17
2022-09-29T21:26:52.201Z,2.10
2022-09-29T21:29:37.455Z,2.85
2022-09-29T21:32:22.946Z,1.63
2022-09-29T21:35:08.614Z,1.15
2022-09-29T21:37:54.748Z,1.65
2022-09-29T21:40:40.138Z,1.70
2022-09-29T21:43:25.543Z,6.00
2022-09-29T21:46:13.178Z,2.70
2022-09-29T21:49:00.986Z,2.90
2022-09-29T21:51:49.018Z,1.40
2022-09-29T21:54:37.573Z,2.10
2022-09-29T21:57:22.914Z,1.17
2022-09-29T22:00:08.917Z,1.67
2022-09-29T22:02:54.516Z,1.33
2022-09-29T22:05:42.765Z,2.42
2022-09-29T22:08:30.225Z,1.80
2022-09-29T22:11:18.180Z,1.10
2022-09-29T22:14:03.885Z,1.60
2022-09-29T22:16:49.703Z,2.72
2022-09-29T22:19:35.413Z,2.25
2022-09-29T22:22:21.024Z,1.90
2022-09-29T22:25:06.965Z,1.00
2022-09-29T22:27:52.301Z,3.42
2022-09-29T22:30:38.544Z,2.10
2022-09-29T22:33:23.849Z,2.42
2022-09-29T22:36:10.681Z,2.22
2022-09-29T22:38:56.624Z,1.57
2022-09-29T22:41:43.503Z,2.33
2022-09-29T22:44:29.166Z,3.00
2022-09-29T22:47:14.579Z,1.60
2022-09-29T22:49:59.917Z,3.28
2022-09-29T22:52:46.307Z,2.00
2022-09-29T22:55:33.451Z,1.60
2022-09-29T22:58:19.151Z,2.47
2022-09-29T23:01:10.351Z,2.00
2022-09-29T23:03:56.093Z,2.45
2022-09-29T23:06:41.653Z,3.15
2022-09-29T23:09:27.170Z,2.17
2022-09-29T23:12:12.543Z,3.55
2022-09-29T23:14:58.233Z,2.20
2022-09-29T23:17:43.649Z,2.40
2022-09-29T23:20:28.972Z,5.87
2022-09-29T23:23:14.696Z,3.17
2022-09-29T23:26:00.885Z,2.63
2022-09-29T23:28:46.477Z,2.05
2022-09-29T23:31:32.103Z,2.90
2022-09-29T23:34:17.938Z,1.53
2022-09-29T23:37:04.349Z,3.65
2022-09-29T23:39:49.645Z,1.55
2022-09-29T23:42:36.356Z,3.25
2022-09-29T23:45:22.116Z,1.60
2022-09-29T23:48:07.757Z,1.92
2022-09-29T23:50:53.602Z,3.45
2022-09-29T23:53:39.144Z,1.73
2022-09-29T23:56:26.292Z,3.15
2022-09-29T23:59:11.883Z,1.30
